NTUOCEANA NAS (APOLLO SOUCEK FLD)
METARs for airports near NTU, sorted by distance:
N 0 nm 21' KNTU 171556Z 14009G15KT 10SM SCT070 27/21 A3022
NW 9 nm 26' KORF 171651Z 21008KT 10SM FEW043 30/18 A3021
NW 14 nm 14' KNGU 171559Z 19006KT 10SM FEW041 29/19 A3023
SW 16 nm 18' KCPK 171655Z 13007KT 10SM CLR 28/17 A3021
W 20 nm 28' KPVG 171556Z 10SM CLR 29/19 A3023
NW 22 nm 8' KLFI 171555Z 13008KT 10SM SCT050 29/17 A3021
S 25 nm 17' KONX 171650Z 12008KT 090V160 10SM CLR 28/19 A3023
W 28 nm 70' KSFQ 171635Z 15007KT 10SM BKN047 29/18 A3023
NW 28 nm 42' KPHF 171554Z 20007KT 10SM BKN050 28/18 A3023
NW 33 nm 11' KFAF 171555Z 16006KT 10SM FEW060 28/18 A3019
S 34 nm 10' KECG 171554Z 10007KT 10SM CLR 28/18 A3024
W 42 nm 40' KFKN 171635Z 16003KT 10SM OVC049 28/17 A3022
W 47 nm 111' KAKQ 171554Z 00000KT 10SM FEW045 29/19 A3022
N 51 nm 47' KMFV 171655Z 17011G15KT 10SM CLR A3022
S 51 nm 11' KFFA 171650Z 11008KT 060V120 10SM CLR 26/16 A3024
SW 54 nm 18' KEDE 171650Z 08005KT 10SM CLR 29/22 A3024
NW 54 nm 20' KFYJ 171635Z 00000KT 10SM SCT060 29/19 A3021
S 56 nm 12' KMQI 171645Z 11008KT 090V150 10SM CLR 27/16 A3026
N 60 nm 5' KTGI 171655Z 18008KT 10SM CLR 28/21 A3021
SW 63 nm 66' KASJ 171645Z 13005KT 10SM 29/18 A3021
W 70 nm 126' KEMV 171655Z 00000KT 10SM CLR 30/20 A3022
N 72 nm 40' KWAL 171554Z 17014G20KT 10SM CLR 28/20 A3024
W 73 nm 192' KPTB 171655Z 21005KT 10SM OVC040 29/19 A3021
NW 74 nm 167' KRIC 171554Z 18009KT 10SM BKN041 BKN200 29/19 A3020
NW 74 nm 135' KXSA 171635Z 19007KT 10SM SCT042 30/18 A3020
NW 79 nm 236' KFCI 171556Z 20009KT 10SM FEW041 29/18 A3021
SW 80 nm 74' KMCZ 171645Z 00000KT 10SM SCT050 30/18 A3022
W 82 nm 144' KIXA 171650Z 24004KT 10SM SCT046 28/22 A3021
W 84 nm 328' KLVL 171635Z 00000KT 10SM BKN044 30/20 A3022
NW 85 nm 206' KOFP 171554Z 18008KT 130V210 10SM CLR 30/18 A3020
N 89 nm 38' KNHK 171652Z 13013G20KT 10SM FEW065 30/21 A3018
SW 89 nm 37' KOCW 171645Z 17008KT 10SM BKN046 30/17 A3023
SW 90 nm 52' KETC 171640Z 11003KT 5SM HZ CLR 30/18 A3020
W 93 nm 437' KBKT 171655Z 23008KT 10SM SCT065 BKN075 29/20 A3021
N 94 nm 52' KSBY 171554Z 20007KT 10SM CLR 28/18 A3022
SW 96 nm 26' KPGV 171645Z 15004KT 10SM CLR 31/17 A3021
S 97 nm 16' KHSE 171651Z 11010KT 10SM CLR 29/17 A3024
W 97 nm 441' KAVC 171635Z 22006KT 10SM OVC039 30/19 A3027
NE 99 nm 15' KOXB 171653Z 19008G16KT 10SM 26/19 A3023
TAFs for airports near NTU, sorted by distance:
N 0 nm 21' KNTU TAF KNTU 1715/1815 15013G23KT 9999 FEW030 SCT050 QNH3012INS
  FM180600 15006KT 9999 SKC QNH3018INS TX31/1718Z TN19/1809Z FN20008
NW 9 nm 26' KORF TAF KORF 171120Z 1712/1812 VRB05KT P6SM FEW080
  FM171500 15010KT P6SM FEW060
  FM180000 15006KT P6SM SKC
NW 14 nm 14' KNGU TAF KNGU 1715/1815 VRB06KT 9999 SCT060 SCT250 QNH3018INS
  BECMG 1718/1720 14013G18KT 9999 FEW035 BKN060 QNH3015INS
  BECMG 1804/1806 16008KT 9999 FEW035 SCT050 QNH3022INS TX29/1718Z TN20/1810Z FN20075
NW 22 nm 8' KLFI TAF KLFI 171700Z 1717/1823 16009KT 9999 FEW050 QNH3013INS
  BECMG 1803/1804 18012KT 9999 BKN040 QNH3021INS
  BECMG 1814/1815 13006KT 9999 SCT050 QNH3024INS TX31/1720Z TN21/1809Z
NW 28 nm 42' KPHF TAF KPHF 171120Z 1712/1812 VRB04KT P6SM SCT060
  FM171400 16008KT P6SM FEW060
NW 33 nm 11' KFAF TAF KFAF 171000Z 1710/1816 18009KT 9999 BKN060 QNH3020INS
  BECMG 1713/1714 18007KT 9999 SCT060 QNH3010INS
  BECMG 1813/1814 16006KT 9999 FEW060 QNH3024INS TX30/1720Z TN21/1810Z
S 34 nm 10' KECG TAF KECG 171120Z 1712/1812 VRB04KT P6SM FEW080
  FM171400 12009KT P6SM FEW060
  FM180000 14006KT P6SM SKC
NW 74 nm 167' KRIC TAF KRIC 171120Z 1712/1812 VRB05KT P6SM FEW035 BKN070
  FM171400 18007KT P6SM SCT060
  FM180000 15005KT P6SM SKC
N 89 nm 38' KNHK TAF KNHK 1715/1815 15013G21KT 9999 SCT050 SCT250 QNH3009INS
  BECMG 1723/1801 18008KT 9999 BKN040 QNH3014INS TX31/1718Z TN23/1810Z FN20065
N 94 nm 52' KSBY TAF KSBY 171120Z 1712/1812 VRB03KT P6SM SCT080
  FM171600 19010KT P6SM FEW060
  FM180000 16007KT P6SM SKC
SW 96 nm 26' KPGV TAF KPGV 171120Z 1712/1812 12008KT P6SM FEW060
  FM180000 10006KT P6SM FEW250
  AMD LTD TO CLD VIS AND WIND

Shortcut to this page: http://wxbay.com.

Data may contain errors.